Observations for DINARD PLEURTUIT, France (LFRD)

LFRD 240000Z AUTO 19011KT 9999 FEW049 OVC120 06/03 Q1024
LFRD 232330Z AUTO 19009KT CAVOK 06/03 Q1024 
LFRD 232300Z AUTO 20008KT CAVOK 06/03 Q1025 
LFRD 232230Z AUTO 20007KT CAVOK 06/03 Q1025 
LFRD 232200Z AUTO 20006KT CAVOK 06/03 Q1025 
LFRD 232130Z AUTO 20007KT CAVOK 06/03 Q1025 
LFRD 232100Z AUTO 20007KT CAVOK 06/03 Q1025 
LFRD 232030Z AUTO 21005KT CAVOK 06/03 Q1025 
LFRD 232000Z AUTO 19006KT CAVOK 05/03 Q1025 
LFRD 231930Z AUTO 18006KT CAVOK 05/03 Q1026 
LFRD 231900Z AUTO 19006KT CAVOK 05/02 Q1026 
LFRD 231830Z AUTO 19006KT CAVOK 05/02 Q1026 
LFRD 231800Z AUTO 19005KT CAVOK 05/02 Q1026 
LFRD 231730Z AUTO 19005KT CAVOK 06/02 Q1026 
LFRD 231700Z AUTO 19004KT CAVOK 06/02 Q1025 
LFRD 231630Z AUTO 22003KT CAVOK 07/03 Q1026 
LFRD 231600Z AUTO 20004KT CAVOK 08/02 Q1025 
LFRD 231530Z AUTO 19004KT 9999 FEW031 SCT190 09/02 Q1025
LFRD 231500Z AUTO 19004KT CAVOK 10/02 Q1025 
LFRD 231430Z AUTO 18003KT 140V230 CAVOK 10/02 Q1025 
LFRD 231400Z AUTO 20004KT 160V230 CAVOK 10/01 Q1025 
LFRD 231330Z AUTO 16003KT 100V200 CAVOK 10/02 Q1025 
LFRD 231300Z AUTO VRB02KT CAVOK 10/02 Q1025 
LFRD 231230Z AUTO VRB02KT CAVOK 10/02 Q1026 
LFRD 231200Z AUTO VRB03KT CAVOK 09/02 Q1026 
LFRD 231130Z AUTO 10004KT 070V130 CAVOK 09/03 Q1026 
LFRD 231100Z AUTO VRB03KT CAVOK 09/05 Q1026 
LFRD 231030Z AUTO 10004KT CAVOK 08/04 Q1026 
LFRD 231000Z AUTO 12003KT 9999 NCD 08/04 Q1026  
LFRD 230930Z AUTO 11004KT 9999 NCD 07/04 Q1026  
LFRD 230900Z AUTO 10003KT 9999 NCD 06/05 Q1025  
LFRD 230830Z AUTO 11002KT 9999 NCD 04/03 Q1025  
LFRD 230800Z AUTO VRB02KT 9000 NCD 03/02 Q1024  
LFRD 230730Z AUTO 00000KT 9999 NCD 03/02 Q1024  
LFRD 230700Z AUTO 04001KT 8000 2000 NCD 03/02 Q1024 
LFRD 230630Z AUTO 08003KT 7000 2900 FEW046/// BKN062/// 03/03 Q1023 
LFRD 230600Z AUTO 08003KT 9999 NCD 03/03 Q1023  
LFRD 230530Z AUTO 09003KT 9000 NCD 03/03 Q1023  
LFRD 230500Z AUTO 11003KT 9999 NCD 03/02 Q1023  
LFRD 230430Z AUTO VRB02KT 9999 FEW024/// BKN050/// 04/03 Q1023  
LFRD 230400Z AUTO 06004KT 9999 SCT025/// BKN031/// BKN037/// 04/04 Q1022
LFRD 230330Z AUTO 12003KT 9999 NCD 04/02 Q1022  
LFRD 230300Z AUTO VRB03KT 9999 FEW042/// 06/03 Q1022
LFRD 230230Z AUTO 07007KT 9999 FEW025/// BKN056/// 07/04 Q1022  
LFRD 230200Z AUTO 07005KT 9999 SCT027/// BKN037/// BKN046/// 07/04 Q1022
LFRD 230130Z AUTO 07004KT 9999 FEW024/// OVC060/// 07/04 Q1021  
LFRD 230100Z AUTO 06005KT 9999 FEW028/// SCT040/// BKN049/// 07/04 Q1021
LFRD 230030Z AUTO 05006KT 020V080 9999 FEW028/// BKN036/// BKN045/// 07/04 Q1021
LFRD 230000Z AUTO 03005KT 360V060 9999 BKN027/// BKN033/// BKN042/// 07/04 Q1021